< < Back
Terminal Aerodrome Forecast


Current Version              Previous Versions:   1  2  3  4  5  6  7  8  9  

Terminal Aerodrome Forecast

491
FTUS42 KMLB 100533
TAFMCO
TAF
KMCO 100533Z 1006/1106 30010KT P6SM FEW050 SCT250
     FM101400 29016G24KT P6SM SKC
     FM110100 31006KT P6SM SKC=

Latest METAR

669
SAUS70 KWBC 100558
MTRMCO
METAR KMCO 100553Z 31013KT 10SM FEW048 BKN250 10/00 A3012 RMK AO2 SLP197
T01000000 10139 20100 51020


USA.gov is the U.S. government's official web portal to all federal, state and local government web resources and services.